sensor_id;sensor_type;location;lat;lon;timestamp;P1;durP1;ratioP1;P2;durP2;ratioP2
67804;SDS011;54603;45.638;11.714;2023-02-01T00:01:22;23.20;;;17.70;;
67804;SDS011;54603;45.638;11.714;2023-02-01T00:03:48;21.60;;;17.00;;
67804;SDS011;54603;45.638;11.714;2023-02-01T00:06:13;22.40;;;17.20;;
67804;SDS011;54603;45.638;11.714;2023-02-01T00:08:39;21.00;;;17.30;;
67804;SDS011;54603;45.638;11.714;2023-02-01T00:11:06;22.80;;;17.10;;
67804;SDS011;54603;45.638;11.714;2023-02-01T00:13:33;21.30;;;17.70;;
67804;SDS011;54603;45.638;11.714;2023-02-01T00:16:04;21.20;;;16.90;;
67804;SDS011;54603;45.638;11.714;2023-02-01T00:18:30;21.70;;;17.20;;
67804;SDS011;54603;45.638;11.714;2023-02-01T00:20:56;22.40;;;17.00;;
67804;SDS011;54603;45.638;11.714;2023-02-01T00:23:22;20.10;;;16.40;;
67804;SDS011;54603;45.638;11.714;2023-02-01T00:25:47;21.00;;;17.00;;
67804;SDS011;54603;45.638;11.714;2023-02-01T00:28:13;22.60;;;17.20;;
67804;SDS011;54603;45.638;11.714;2023-02-01T00:30:38;22.00;;;17.50;;
67804;SDS011;54603;45.638;11.714;2023-02-01T00:33:04;23.00;;;17.40;;
67804;SDS011;54603;45.638;11.714;2023-02-01T00:35:30;22.20;;;17.00;;
67804;SDS011;54603;45.638;11.714;2023-02-01T00:37:55;21.30;;;17.20;;
67804;SDS011;54603;45.638;11.714;2023-02-01T00:40:23;19.80;;;16.60;;
67804;SDS011;54603;45.638;11.714;2023-02-01T00:42:49;20.00;;;17.10;;
67804;SDS011;54603;45.638;11.714;2023-02-01T00:45:14;22.40;;;16.90;;
67804;SDS011;54603;45.638;11.714;2023-02-01T00:47:40;21.30;;;16.60;;
67804;SDS011;54603;45.638;11.714;2023-02-01T00:50:06;21.50;;;16.70;;
67804;SDS011;54603;45.638;11.714;2023-02-01T00:52:32;21.50;;;17.00;;
67804;SDS011;54603;45.638;11.714;2023-02-01T00:54:57;20.60;;;16.90;;
67804;SDS011;54603;45.638;11.714;2023-02-01T00:57:23;21.50;;;16.50;;
67804;SDS011;54603;45.638;11.714;2023-02-01T00:59:49;23.20;;;17.10;;
67804;SDS011;54603;45.638;11.714;2023-02-01T01:02:14;21.00;;;16.60;;
67804;SDS011;54603;45.638;11.714;2023-02-01T01:04:40;21.70;;;17.20;;
67804;SDS011;54603;45.638;11.714;2023-02-01T01:07:05;21.10;;;16.00;;
67804;SDS011;54603;45.638;11.714;2023-02-01T01:09:31;20.10;;;16.20;;
67804;SDS011;54603;45.638;11.714;2023-02-01T01:11:57;22.10;;;16.70;;
67804;SDS011;54603;45.638;11.714;2023-02-01T01:14:27;22.90;;;16.60;;
67804;SDS011;54603;45.638;11.714;2023-02-01T01:16:55;21.60;;;17.00;;
67804;SDS011;54603;45.638;11.714;2023-02-01T01:19:21;21.30;;;16.70;;
67804;SDS011;54603;45.638;11.714;2023-02-01T01:21:47;21.50;;;16.90;;
67804;SDS011;54603;45.638;11.714;2023-02-01T01:24:12;19.30;;;15.60;;
67804;SDS011;54603;45.638;11.714;2023-02-01T01:26:38;20.00;;;16.00;;
67804;SDS011;54603;45.638;11.714;2023-02-01T01:29:03;20.60;;;15.70;;
67804;SDS011;54603;45.638;11.714;2023-02-01T01:31:29;18.90;;;16.00;;
67804;SDS011;54603;45.638;11.714;2023-02-01T01:33:56;24.10;;;17.10;;
67804;SDS011;54603;45.638;11.714;2023-02-01T01:36:24;21.60;;;16.40;;
67804;SDS011;54603;45.638;11.714;2023-02-01T01:38:51;19.50;;;16.10;;
67804;SDS011;54603;45.638;11.714;2023-02-01T01:41:20;22.00;;;16.70;;
67804;SDS011;54603;45.638;11.714;2023-02-01T01:46:24;20.40;;;15.70;;
67804;SDS011;54603;45.638;11.714;2023-02-01T01:51:37;19.40;;;15.20;;
67804;SDS011;54603;45.638;11.714;2023-02-01T01:56:38;19.30;;;15.00;;
67804;SDS011;54603;45.638;11.714;2023-02-01T01:59:04;19.80;;;15.70;;
67804;SDS011;54603;45.638;11.714;2023-02-01T02:01:30;19.30;;;15.80;;
67804;SDS011;54603;45.638;11.714;2023-02-01T02:03:56;23.80;;;16.50;;
67804;SDS011;54603;45.638;11.714;2023-02-01T02:08:52;20.20;;;15.70;;
67804;SDS011;54603;45.638;11.714;2023-02-01T02:11:18;17.90;;;15.30;;
67804;SDS011;54603;45.638;11.714;2023-02-01T02:13:45;19.60;;;15.30;;
67804;SDS011;54603;45.638;11.714;2023-02-01T02:27:26;18.40;;;15.40;;
67804;SDS011;54603;45.638;11.714;2023-02-01T02:31:02;18.90;;;15.20;;
67804;SDS011;54603;45.638;11.714;2023-02-01T02:33:38;18.80;;;15.20;;
67804;SDS011;54603;45.638;11.714;2023-02-01T02:39:05;20.60;;;16.10;;
67804;SDS011;54603;45.638;11.714;2023-02-01T02:41:44;19.20;;;15.70;;
67804;SDS011;54603;45.638;11.714;2023-02-01T02:53:19;20.10;;;15.40;;
67804;SDS011;54603;45.638;11.714;2023-02-01T02:56:07;18.40;;;14.60;;
67804;SDS011;54603;45.638;11.714;2023-02-01T02:58:52;19.30;;;15.20;;
67804;SDS011;54603;45.638;11.714;2023-02-01T03:01:37;18.50;;;14.70;;
67804;SDS011;54603;45.638;11.714;2023-02-01T03:04:22;20.00;;;15.60;;
67804;SDS011;54603;45.638;11.714;2023-02-01T03:06:48;19.30;;;15.10;;
67804;SDS011;54603;45.638;11.714;2023-02-01T03:09:29;18.20;;;15.10;;
67804;SDS011;54603;45.638;11.714;2023-02-01T03:11:58;20.10;;;14.90;;
67804;SDS011;54603;45.638;11.714;2023-02-01T03:14:46;18.20;;;14.90;;
67804;SDS011;54603;45.638;11.714;2023-02-01T03:17:16;19.70;;;14.90;;
67804;SDS011;54603;45.638;11.714;2023-02-01T03:19:45;19.60;;;15.40;;
67804;SDS011;54603;45.638;11.714;2023-02-01T03:22:15;19.30;;;15.30;;
67804;SDS011;54603;45.638;11.714;2023-02-01T03:24:44;20.40;;;15.50;;
67804;SDS011;54603;45.638;11.714;2023-02-01T03:27:18;19.00;;;15.50;;
67804;SDS011;54603;45.638;11.714;2023-02-01T03:32:25;20.80;;;15.30;;
67804;SDS011;54603;45.638;11.714;2023-02-01T03:34:51;18.70;;;14.80;;
67804;SDS011;54603;45.638;11.714;2023-02-01T03:37:23;18.90;;;15.10;;
67804;SDS011;54603;45.638;11.714;2023-02-01T03:39:57;19.70;;;14.80;;
67804;SDS011;54603;45.638;11.714;2023-02-01T03:42:26;19.30;;;14.40;;
67804;SDS011;54603;45.638;11.714;2023-02-01T03:45:01;18.00;;;14.60;;
67804;SDS011;54603;45.638;11.714;2023-02-01T03:47:35;17.40;;;14.50;;
67804;SDS011;54603;45.638;11.714;2023-02-01T03:50:09;18.10;;;15.30;;
67804;SDS011;54603;45.638;11.714;2023-02-01T03:52:41;19.70;;;14.90;;
67804;SDS011;54603;45.638;11.714;2023-02-01T03:55:09;17.00;;;13.80;;
67804;SDS011;54603;45.638;11.714;2023-02-01T03:57:50;16.40;;;14.20;;
67804;SDS011;54603;45.638;11.714;2023-02-01T04:00:20;18.90;;;14.10;;
67804;SDS011;54603;45.638;11.714;2023-02-01T04:02:47;18.10;;;14.70;;
67804;SDS011;54603;45.638;11.714;2023-02-01T04:05:13;19.40;;;14.70;;
67804;SDS011;54603;45.638;11.714;2023-02-01T04:07:39;20.60;;;14.70;;
67804;SDS011;54603;45.638;11.714;2023-02-01T04:10:05;18.00;;;14.10;;
67804;SDS011;54603;45.638;11.714;2023-02-01T04:12:31;17.20;;;14.30;;
67804;SDS011;54603;45.638;11.714;2023-02-01T04:14:57;18.60;;;14.60;;
67804;SDS011;54603;45.638;11.714;2023-02-01T04:17:23;17.80;;;14.80;;
67804;SDS011;54603;45.638;11.714;2023-02-01T04:19:49;18.70;;;14.50;;
67804;SDS011;54603;45.638;11.714;2023-02-01T04:22:15;18.70;;;14.50;;
67804;SDS011;54603;45.638;11.714;2023-02-01T04:24:40;18.90;;;14.70;;
67804;SDS011;54603;45.638;11.714;2023-02-01T04:27:06;17.70;;;14.80;;
67804;SDS011;54603;45.638;11.714;2023-02-01T04:29:31;16.90;;;13.70;;
67804;SDS011;54603;45.638;11.714;2023-02-01T04:31:57;19.10;;;14.20;;
67804;SDS011;54603;45.638;11.714;2023-02-01T04:34:22;16.30;;;13.60;;
67804;SDS011;54603;45.638;11.714;2023-02-01T04:36:50;17.70;;;14.20;;
67804;SDS011;54603;45.638;11.714;2023-02-01T04:39:15;19.10;;;14.60;;
67804;SDS011;54603;45.638;11.714;2023-02-01T04:41:41;17.20;;;14.20;;
67804;SDS011;54603;45.638;11.714;2023-02-01T04:44:08;16.20;;;13.70;;
67804;SDS011;54603;45.638;11.714;2023-02-01T04:49:04;17.10;;;13.60;;
67804;SDS011;54603;45.638;11.714;2023-02-01T04:51:30;18.20;;;14.20;;
67804;SDS011;54603;45.638;11.714;2023-02-01T04:53:55;17.40;;;13.80;;
67804;SDS011;54603;45.638;11.714;2023-02-01T04:56:21;17.70;;;14.20;;
67804;SDS011;54603;45.638;11.714;2023-02-01T04:58:47;17.20;;;13.70;;
67804;SDS011;54603;45.638;11.714;2023-02-01T05:01:12;18.10;;;14.30;;
67804;SDS011;54603;45.638;11.714;2023-02-01T05:03:38;16.10;;;13.20;;
67804;SDS011;54603;45.638;11.714;2023-02-01T05:06:03;17.40;;;13.30;;
67804;SDS011;54603;45.638;11.714;2023-02-01T05:08:29;16.70;;;13.80;;
67804;SDS011;54603;45.638;11.714;2023-02-01T05:10:55;18.50;;;14.10;;
67804;SDS011;54603;45.638;11.714;2023-02-01T05:13:21;19.10;;;14.40;;
67804;SDS011;54603;45.638;11.714;2023-02-01T05:16:05;15.90;;;13.60;;
67804;SDS011;54603;45.638;11.714;2023-02-01T05:18:31;17.40;;;13.60;;
67804;SDS011;54603;45.638;11.714;2023-02-01T05:20:57;16.30;;;13.50;;
67804;SDS011;54603;45.638;11.714;2023-02-01T05:23:23;17.00;;;13.50;;
67804;SDS011;54603;45.638;11.714;2023-02-01T05:25:48;15.50;;;13.10;;
67804;SDS011;54603;45.638;11.714;2023-02-01T05:28:14;19.10;;;13.80;;
67804;SDS011;54603;45.638;11.714;2023-02-01T05:30:39;15.30;;;13.50;;
67804;SDS011;54603;45.638;11.714;2023-02-01T05:33:05;15.90;;;13.40;;
67804;SDS011;54603;45.638;11.714;2023-02-01T05:35:30;14.00;;;12.60;;
67804;SDS011;54603;45.638;11.714;2023-02-01T05:37:56;16.30;;;13.10;;
67804;SDS011;54603;45.638;11.714;2023-02-01T05:40:21;17.30;;;12.80;;
67804;SDS011;54603;45.638;11.714;2023-02-01T05:42:47;15.20;;;13.10;;
67804;SDS011;54603;45.638;11.714;2023-02-01T05:45:13;17.30;;;14.10;;
67804;SDS011;54603;45.638;11.714;2023-02-01T05:47:38;17.80;;;13.40;;
67804;SDS011;54603;45.638;11.714;2023-02-01T05:50:04;16.80;;;13.00;;
67804;SDS011;54603;45.638;11.714;2023-02-01T05:52:31;15.00;;;12.70;;
67804;SDS011;54603;45.638;11.714;2023-02-01T05:54:57;18.20;;;14.60;;
67804;SDS011;54603;45.638;11.714;2023-02-01T05:57:22;14.80;;;12.70;;
67804;SDS011;54603;45.638;11.714;2023-02-01T05:59:48;19.20;;;13.40;;
67804;SDS011;54603;45.638;11.714;2023-02-01T06:02:14;16.40;;;12.80;;
67804;SDS011;54603;45.638;11.714;2023-02-01T06:04:40;16.20;;;13.10;;
67804;SDS011;54603;45.638;11.714;2023-02-01T06:07:07;16.60;;;12.60;;
67804;SDS011;54603;45.638;11.714;2023-02-01T06:09:34;17.20;;;13.50;;
67804;SDS011;54603;45.638;11.714;2023-02-01T06:12:00;17.50;;;13.20;;
67804;SDS011;54603;45.638;11.714;2023-02-01T06:14:27;15.20;;;12.70;;
67804;SDS011;54603;45.638;11.714;2023-02-01T06:16:53;15.00;;;12.10;;
67804;SDS011;54603;45.638;11.714;2023-02-01T06:19:20;16.20;;;13.20;;
67804;SDS011;54603;45.638;11.714;2023-02-01T06:21:45;15.50;;;12.90;;
67804;SDS011;54603;45.638;11.714;2023-02-01T06:24:12;16.40;;;13.30;;
67804;SDS011;54603;45.638;11.714;2023-02-01T06:26:37;13.00;;;11.60;;
67804;SDS011;54603;45.638;11.714;2023-02-01T06:29:04;16.30;;;13.00;;
67804;SDS011;54603;45.638;11.714;2023-02-01T06:31:31;16.00;;;13.00;;
67804;SDS011;54603;45.638;11.714;2023-02-01T06:33:57;18.30;;;13.40;;
67804;SDS011;54603;45.638;11.714;2023-02-01T06:36:24;15.80;;;13.00;;
67804;SDS011;54603;45.638;11.714;2023-02-01T06:38:51;16.30;;;12.80;;
67804;SDS011;54603;45.638;11.714;2023-02-01T06:41:23;15.80;;;12.00;;
67804;SDS011;54603;45.638;11.714;2023-02-01T06:43:48;15.20;;;12.70;;
67804;SDS011;54603;45.638;11.714;2023-02-01T06:46:15;16.50;;;12.80;;
67804;SDS011;54603;45.638;11.714;2023-02-01T06:48:43;14.90;;;11.90;;
67804;SDS011;54603;45.638;11.714;2023-02-01T06:51:19;16.80;;;12.80;;
67804;SDS011;54603;45.638;11.714;2023-02-01T06:53:52;15.50;;;12.10;;
67804;SDS011;54603;45.638;11.714;2023-02-01T06:56:18;15.10;;;12.70;;
67804;SDS011;54603;45.638;11.714;2023-02-01T06:58:44;16.10;;;11.80;;
67804;SDS011;54603;45.638;11.714;2023-02-01T07:01:10;14.70;;;12.00;;
67804;SDS011;54603;45.638;11.714;2023-02-01T07:03:38;14.90;;;12.20;;
67804;SDS011;54603;45.638;11.714;2023-02-01T07:06:08;14.10;;;12.10;;
67804;SDS011;54603;45.638;11.714;2023-02-01T07:08:37;15.70;;;11.90;;
67804;SDS011;54603;45.638;11.714;2023-02-01T07:11:03;16.60;;;12.30;;
67804;SDS011;54603;45.638;11.714;2023-02-01T07:13:33;13.80;;;11.90;;
67804;SDS011;54603;45.638;11.714;2023-02-01T07:16:00;16.30;;;12.40;;
67804;SDS011;54603;45.638;11.714;2023-02-01T07:18:27;14.90;;;12.30;;
67804;SDS011;54603;45.638;11.714;2023-02-01T07:20:54;14.00;;;12.10;;
67804;SDS011;54603;45.638;11.714;2023-02-01T07:23:20;18.60;;;12.00;;
67804;SDS011;54603;45.638;11.714;2023-02-01T07:25:46;14.40;;;11.80;;
67804;SDS011;54603;45.638;11.714;2023-02-01T07:28:11;16.90;;;12.70;;
67804;SDS011;54603;45.638;11.714;2023-02-01T07:30:37;17.60;;;12.70;;
67804;SDS011;54603;45.638;11.714;2023-02-01T07:33:03;18.30;;;13.40;;
67804;SDS011;54603;45.638;11.714;2023-02-01T07:35:28;19.80;;;12.80;;
67804;SDS011;54603;45.638;11.714;2023-02-01T07:37:55;16.40;;;12.80;;
67804;SDS011;54603;45.638;11.714;2023-02-01T07:40:23;17.50;;;13.80;;
67804;SDS011;54603;45.638;11.714;2023-02-01T07:42:55;17.80;;;13.10;;
67804;SDS011;54603;45.638;11.714;2023-02-01T07:45:22;16.10;;;12.70;;
67804;SDS011;54603;45.638;11.714;2023-02-01T07:47:48;19.00;;;13.40;;
67804;SDS011;54603;45.638;11.714;2023-02-01T07:50:16;18.20;;;13.60;;
67804;SDS011;54603;45.638;11.714;2023-02-01T07:52:41;17.30;;;13.30;;
67804;SDS011;54603;45.638;11.714;2023-02-01T07:55:07;15.90;;;13.40;;
67804;SDS011;54603;45.638;11.714;2023-02-01T07:57:33;17.50;;;13.40;;
67804;SDS011;54603;45.638;11.714;2023-02-01T07:59:58;18.30;;;13.70;;
67804;SDS011;54603;45.638;11.714;2023-02-01T08:02:50;17.20;;;13.10;;
67804;SDS011;54603;45.638;11.714;2023-02-01T08:05:16;20.00;;;13.10;;
67804;SDS011;54603;45.638;11.714;2023-02-01T08:07:42;18.60;;;13.30;;
67804;SDS011;54603;45.638;11.714;2023-02-01T08:10:07;15.70;;;12.40;;
67804;SDS011;54603;45.638;11.714;2023-02-01T08:12:36;17.90;;;13.60;;
67804;SDS011;54603;45.638;11.714;2023-02-01T08:15:02;19.30;;;13.10;;
67804;SDS011;54603;45.638;11.714;2023-02-01T08:17:29;19.30;;;12.70;;
67804;SDS011;54603;45.638;11.714;2023-02-01T08:19:55;15.10;;;12.50;;
67804;SDS011;54603;45.638;11.714;2023-02-01T08:22:22;18.10;;;12.70;;
67804;SDS011;54603;45.638;11.714;2023-02-01T08:24:48;18.40;;;13.50;;
67804;SDS011;54603;45.638;11.714;2023-02-01T08:27:14;15.60;;;12.70;;
67804;SDS011;54603;45.638;11.714;2023-02-01T08:29:41;15.10;;;12.40;;
67804;SDS011;54603;45.638;11.714;2023-02-01T08:32:06;18.30;;;12.40;;
67804;SDS011;54603;45.638;11.714;2023-02-01T08:34:32;19.20;;;12.70;;
67804;SDS011;54603;45.638;11.714;2023-02-01T08:36:57;15.80;;;12.90;;
67804;SDS011;54603;45.638;11.714;2023-02-01T08:39:24;16.10;;;12.30;;
67804;SDS011;54603;45.638;11.714;2023-02-01T08:41:50;16.90;;;12.50;;
67804;SDS011;54603;45.638;11.714;2023-02-01T08:44:34;17.90;;;12.90;;
67804;SDS011;54603;45.638;11.714;2023-02-01T08:47:00;15.30;;;12.00;;
67804;SDS011;54603;45.638;11.714;2023-02-01T08:49:26;14.00;;;11.70;;
67804;SDS011;54603;45.638;11.714;2023-02-01T08:51:52;16.90;;;12.70;;
67804;SDS011;54603;45.638;11.714;2023-02-01T08:54:17;14.30;;;12.40;;
67804;SDS011;54603;45.638;11.714;2023-02-01T08:56:43;15.70;;;12.60;;
67804;SDS011;54603;45.638;11.714;2023-02-01T08:59:08;17.70;;;13.30;;
67804;SDS011;54603;45.638;11.714;2023-02-01T09:01:34;16.10;;;12.30;;
67804;SDS011;54603;45.638;11.714;2023-02-01T09:03:59;14.80;;;11.60;;
67804;SDS011;54603;45.638;11.714;2023-02-01T09:06:25;17.00;;;12.40;;
67804;SDS011;54603;45.638;11.714;2023-02-01T09:08:51;14.80;;;11.90;;
67804;SDS011;54603;45.638;11.714;2023-02-01T09:11:17;15.90;;;12.80;;
67804;SDS011;54603;45.638;11.714;2023-02-01T09:13:44;16.70;;;12.30;;
67804;SDS011;54603;45.638;11.714;2023-02-01T09:16:10;17.30;;;12.80;;
67804;SDS011;54603;45.638;11.714;2023-02-01T09:18:36;14.40;;;12.00;;
67804;SDS011;54603;45.638;11.714;2023-02-01T09:21:05;15.20;;;11.80;;
67804;SDS011;54603;45.638;11.714;2023-02-01T09:23:32;16.00;;;12.10;;
67804;SDS011;54603;45.638;11.714;2023-02-01T09:26:01;17.90;;;11.80;;
67804;SDS011;54603;45.638;11.714;2023-02-01T09:28:28;14.20;;;12.30;;
67804;SDS011;54603;45.638;11.714;2023-02-01T09:30:57;14.60;;;12.30;;
67804;SDS011;54603;45.638;11.714;2023-02-01T09:33:23;13.60;;;11.70;;
67804;SDS011;54603;45.638;11.714;2023-02-01T09:35:54;15.30;;;12.20;;
67804;SDS011;54603;45.638;11.714;2023-02-01T09:38:23;15.20;;;12.10;;
67804;SDS011;54603;45.638;11.714;2023-02-01T09:40:50;14.80;;;12.10;;
67804;SDS011;54603;45.638;11.714;2023-02-01T09:48:54;24.70;;;11.80;;
67804;SDS011;54603;45.638;11.714;2023-02-01T09:51:43;16.00;;;11.40;;
67804;SDS011;54603;45.638;11.714;2023-02-01T09:54:13;15.80;;;12.20;;
67804;SDS011;54603;45.638;11.714;2023-02-01T09:56:51;13.50;;;11.30;;
67804;SDS011;54603;45.638;11.714;2023-02-01T09:59:26;14.00;;;11.10;;
67804;SDS011;54603;45.638;11.714;2023-02-01T10:01:59;14.90;;;11.60;;
67804;SDS011;54603;45.638;11.714;2023-02-01T10:04:26;18.30;;;12.10;;
67804;SDS011;54603;45.638;11.714;2023-02-01T10:12:00;14.90;;;11.30;;
67804;SDS011;54603;45.638;11.714;2023-02-01T10:17:32;14.50;;;11.70;;
67804;SDS011;54603;45.638;11.714;2023-02-01T10:22:59;14.30;;;11.30;;
67804;SDS011;54603;45.638;11.714;2023-02-01T10:25:56;13.60;;;10.90;;
67804;SDS011;54603;45.638;11.714;2023-02-01T10:28:34;13.90;;;11.70;;
67804;SDS011;54603;45.638;11.714;2023-02-01T10:31:02;16.10;;;11.20;;
67804;SDS011;54603;45.638;11.714;2023-02-01T10:36:33;13.70;;;11.00;;
67804;SDS011;54603;45.638;11.714;2023-02-01T10:39:03;13.40;;;11.30;;
67804;SDS011;54603;45.638;11.714;2023-02-01T10:41:33;14.30;;;10.90;;
67804;SDS011;54603;45.638;11.714;2023-02-01T10:44:02;13.30;;;11.70;;
67804;SDS011;54603;45.638;11.714;2023-02-01T10:46:29;14.50;;;11.70;;
67804;SDS011;54603;45.638;11.714;2023-02-01T10:48:56;14.80;;;11.60;;
67804;SDS011;54603;45.638;11.714;2023-02-01T10:51:26;12.30;;;10.90;;
67804;SDS011;54603;45.638;11.714;2023-02-01T10:56:26;14.10;;;11.30;;
67804;SDS011;54603;45.638;11.714;2023-02-01T10:59:00;18.30;;;11.50;;
67804;SDS011;54603;45.638;11.714;2023-02-01T11:01:30;13.80;;;10.90;;
67804;SDS011;54603;45.638;11.714;2023-02-01T11:04:00;13.50;;;11.00;;
67804;SDS011;54603;45.638;11.714;2023-02-01T11:08:54;15.20;;;12.20;;
67804;SDS011;54603;45.638;11.714;2023-02-01T11:11:21;14.60;;;11.50;;
67804;SDS011;54603;45.638;11.714;2023-02-01T11:13:53;13.40;;;11.20;;
67804;SDS011;54603;45.638;11.714;2023-02-01T11:16:36;15.40;;;12.20;;
67804;SDS011;54603;45.638;11.714;2023-02-01T11:19:03;14.80;;;11.80;;
67804;SDS011;54603;45.638;11.714;2023-02-01T11:21:29;15.70;;;11.70;;
67804;SDS011;54603;45.638;11.714;2023-02-01T11:23:55;14.20;;;11.10;;
67804;SDS011;54603;45.638;11.714;2023-02-01T11:26:22;14.50;;;10.70;;
67804;SDS011;54603;45.638;11.714;2023-02-01T11:29:08;15.00;;;10.40;;
67804;SDS011;54603;45.638;11.714;2023-02-01T11:31:36;13.80;;;10.80;;
67804;SDS011;54603;45.638;11.714;2023-02-01T11:34:14;15.60;;;10.90;;
67804;SDS011;54603;45.638;11.714;2023-02-01T11:36:46;18.50;;;11.70;;
67804;SDS011;54603;45.638;11.714;2023-02-01T11:41:42;17.30;;;12.20;;
67804;SDS011;54603;45.638;11.714;2023-02-01T11:44:18;19.20;;;12.90;;
67804;SDS011;54603;45.638;11.714;2023-02-01T11:46:48;16.00;;;12.40;;
67804;SDS011;54603;45.638;11.714;2023-02-01T11:49:19;14.60;;;12.00;;
67804;SDS011;54603;45.638;11.714;2023-02-01T11:55:03;19.20;;;12.50;;
67804;SDS011;54603;45.638;11.714;2023-02-01T11:58:03;19.30;;;13.60;;
67804;SDS011;54603;45.638;11.714;2023-02-01T12:00:43;20.70;;;14.30;;
67804;SDS011;54603;45.638;11.714;2023-02-01T12:11:10;17.50;;;13.80;;
67804;SDS011;54603;45.638;11.714;2023-02-01T12:19:17;19.90;;;14.80;;
67804;SDS011;54603;45.638;11.714;2023-02-01T12:24:33;19.70;;;14.80;;
67804;SDS011;54603;45.638;11.714;2023-02-01T12:38:41;21.00;;;14.50;;
67804;SDS011;54603;45.638;11.714;2023-02-01T12:41:19;20.30;;;15.10;;
67804;SDS011;54603;45.638;11.714;2023-02-01T12:44:01;21.40;;;15.40;;
67804;SDS011;54603;45.638;11.714;2023-02-01T12:46:57;21.30;;;15.80;;
67804;SDS011;54603;45.638;11.714;2023-02-01T12:49:41;20.40;;;16.40;;
67804;SDS011;54603;45.638;11.714;2023-02-01T12:52:16;22.40;;;15.80;;
67804;SDS011;54603;45.638;11.714;2023-02-01T12:55:24;21.50;;;14.70;;
67804;SDS011;54603;45.638;11.714;2023-02-01T12:58:11;23.40;;;15.20;;
67804;SDS011;54603;45.638;11.714;2023-02-01T13:00:41;22.10;;;15.50;;
67804;SDS011;54603;45.638;11.714;2023-02-01T13:12:21;17.00;;;13.70;;
67804;SDS011;54603;45.638;11.714;2023-02-01T13:14:57;16.80;;;13.20;;
67804;SDS011;54603;45.638;11.714;2023-02-01T13:17:28;19.30;;;13.90;;
67804;SDS011;54603;45.638;11.714;2023-02-01T13:19:59;19.20;;;12.40;;
67804;SDS011;54603;45.638;11.714;2023-02-01T13:22:32;16.10;;;13.00;;
67804;SDS011;54603;45.638;11.714;2023-02-01T13:24:59;16.70;;;12.60;;
67804;SDS011;54603;45.638;11.714;2023-02-01T13:27:46;20.90;;;13.50;;
67804;SDS011;54603;45.638;11.714;2023-02-01T13:30:17;14.50;;;12.10;;
67804;SDS011;54603;45.638;11.714;2023-02-01T13:32:55;17.10;;;13.40;;
67804;SDS011;54603;45.638;11.714;2023-02-01T13:41:07;16.90;;;12.80;;
67804;SDS011;54603;45.638;11.714;2023-02-01T13:43:43;16.90;;;12.90;;
67804;SDS011;54603;45.638;11.714;2023-02-01T13:46:10;17.40;;;12.50;;
67804;SDS011;54603;45.638;11.714;2023-02-01T13:48:51;17.30;;;12.40;;
67804;SDS011;54603;45.638;11.714;2023-02-01T13:51:30;16.20;;;12.20;;
67804;SDS011;54603;45.638;11.714;2023-02-01T13:54:01;18.00;;;11.50;;
67804;SDS011;54603;45.638;11.714;2023-02-01T13:56:29;17.10;;;11.80;;
67804;SDS011;54603;45.638;11.714;2023-02-01T13:59:35;15.00;;;11.00;;
67804;SDS011;54603;45.638;11.714;2023-02-01T14:05:03;16.00;;;11.80;;
67804;SDS011;54603;45.638;11.714;2023-02-01T14:07:29;17.20;;;11.90;;
67804;SDS011;54603;45.638;11.714;2023-02-01T14:09:55;16.00;;;11.80;;
67804;SDS011;54603;45.638;11.714;2023-02-01T14:15:22;15.70;;;11.80;;
67804;SDS011;54603;45.638;11.714;2023-02-01T14:17:52;16.10;;;11.40;;
67804;SDS011;54603;45.638;11.714;2023-02-01T14:23:04;16.80;;;11.90;;
67804;SDS011;54603;45.638;11.714;2023-02-01T14:25:44;14.00;;;10.90;;
67804;SDS011;54603;45.638;11.714;2023-02-01T14:28:16;16.90;;;11.20;;
67804;SDS011;54603;45.638;11.714;2023-02-01T14:30:49;14.90;;;11.20;;
67804;SDS011;54603;45.638;11.714;2023-02-01T14:33:22;14.30;;;10.70;;
67804;SDS011;54603;45.638;11.714;2023-02-01T14:36:01;13.50;;;10.40;;
67804;SDS011;54603;45.638;11.714;2023-02-01T14:38:30;15.80;;;10.40;;
67804;SDS011;54603;45.638;11.714;2023-02-01T14:41:10;13.90;;;10.30;;
67804;SDS011;54603;45.638;11.714;2023-02-01T14:43:51;13.20;;;10.80;;
67804;SDS011;54603;45.638;11.714;2023-02-01T14:49:31;14.30;;;9.90;;
67804;SDS011;54603;45.638;11.714;2023-02-01T14:51:58;14.00;;;10.30;;
67804;SDS011;54603;45.638;11.714;2023-02-01T14:54:25;15.30;;;10.90;;
67804;SDS011;54603;45.638;11.714;2023-02-01T14:56:51;13.40;;;9.60;;
67804;SDS011;54603;45.638;11.714;2023-02-01T14:59:18;12.00;;;9.70;;
67804;SDS011;54603;45.638;11.714;2023-02-01T15:01:50;13.60;;;10.40;;
67804;SDS011;54603;45.638;11.714;2023-02-01T15:04:19;13.10;;;9.80;;
67804;SDS011;54603;45.638;11.714;2023-02-01T15:09:26;14.00;;;9.60;;
67804;SDS011;54603;45.638;11.714;2023-02-01T15:12:01;11.90;;;9.70;;
67804;SDS011;54603;45.638;11.714;2023-02-01T15:14:28;12.00;;;9.50;;
67804;SDS011;54603;45.638;11.714;2023-02-01T15:16:56;12.30;;;9.60;;
67804;SDS011;54603;45.638;11.714;2023-02-01T15:19:23;11.70;;;9.10;;
67804;SDS011;54603;45.638;11.714;2023-02-01T15:21:51;12.70;;;9.50;;
67804;SDS011;54603;45.638;11.714;2023-02-01T15:24:21;14.40;;;9.60;;
67804;SDS011;54603;45.638;11.714;2023-02-01T15:26:48;11.10;;;8.70;;
67804;SDS011;54603;45.638;11.714;2023-02-01T15:29:15;13.40;;;9.50;;
67804;SDS011;54603;45.638;11.714;2023-02-01T15:31:45;14.00;;;9.10;;
67804;SDS011;54603;45.638;11.714;2023-02-01T15:34:12;15.00;;;9.80;;
67804;SDS011;54603;45.638;11.714;2023-02-01T15:36:39;11.20;;;9.20;;
67804;SDS011;54603;45.638;11.714;2023-02-01T15:39:22;11.90;;;8.80;;
67804;SDS011;54603;45.638;11.714;2023-02-01T15:42:10;14.50;;;9.60;;
67804;SDS011;54603;45.638;11.714;2023-02-01T15:44:41;12.90;;;9.30;;
67804;SDS011;54603;45.638;11.714;2023-02-01T15:47:16;12.50;;;8.70;;
67804;SDS011;54603;45.638;11.714;2023-02-01T15:49:43;16.00;;;9.40;;
67804;SDS011;54603;45.638;11.714;2023-02-01T15:52:26;12.20;;;8.80;;
67804;SDS011;54603;45.638;11.714;2023-02-01T15:54:58;12.20;;;8.80;;
67804;SDS011;54603;45.638;11.714;2023-02-01T15:57:31;14.90;;;8.90;;
67804;SDS011;54603;45.638;11.714;2023-02-01T16:00:45;10.70;;;8.80;;
67804;SDS011;54603;45.638;11.714;2023-02-01T16:02:58;11.40;;;8.50;;
67804;SDS011;54603;45.638;11.714;2023-02-01T16:08:06;13.50;;;9.70;;
67804;SDS011;54603;45.638;11.714;2023-02-01T16:10:40;10.70;;;9.00;;
67804;SDS011;54603;45.638;11.714;2023-02-01T16:13:07;13.00;;;9.70;;
67804;SDS011;54603;45.638;11.714;2023-02-01T16:15:33;12.20;;;9.50;;
67804;SDS011;54603;45.638;11.714;2023-02-01T16:18:00;13.90;;;9.60;;
67804;SDS011;54603;45.638;11.714;2023-02-01T16:20:26;13.40;;;9.40;;
67804;SDS011;54603;45.638;11.714;2023-02-01T16:22:52;11.60;;;9.20;;
67804;SDS011;54603;45.638;11.714;2023-02-01T16:25:18;13.50;;;9.60;;
67804;SDS011;54603;45.638;11.714;2023-02-01T16:27:43;12.60;;;9.10;;
67804;SDS011;54603;45.638;11.714;2023-02-01T16:30:09;12.60;;;9.40;;
67804;SDS011;54603;45.638;11.714;2023-02-01T16:32:36;13.00;;;9.20;;
67804;SDS011;54603;45.638;11.714;2023-02-01T16:35:04;12.40;;;9.00;;